25 września 2022

Czas Kod Pogoda Temp. Widoczność Sufit Wiatr METAR/SPECI
12:20
V
15 °C 10 km+ - 330° 330° 6 kt METAR EDDG 251020Z AUTO 33006KT 290V030 9999 FEW022 15/09 Q1014
11:50
V
14 °C 10 km+ - 320° 320° 6 kt METAR EDDG 250950Z AUTO 32006KT 280V350 9999 FEW020 SCT029 14/09 Q1014
11:20
M
14 °C 10 km+ 2.600 ft 340° 340° 5 kt METAR EDDG 250920Z AUTO 34005KT 270V010 9999 BKN026 14/10 Q1014 NOSIG
10:50
V
14 °C 10 km+ - 330° 330° 7 kt METAR EDDG 250850Z AUTO 33007KT 290V010 9999 FEW024 14/10 Q1014 NOSIG
10:20
V
13 °C 10 km+ - 310° 310° 5 kt METAR EDDG 250820Z AUTO 31005KT 270V360 CAVOK 13/10 Q1014 NOSIG
09:50
V
11 °C 10 km+ - 310° 310° 4 kt METAR EDDG 250750Z AUTO 31004KT 280V340 CAVOK 11/09 Q1014
09:20
V
10 °C 10 km+ - 310° 310° 4 kt METAR EDDG 250720Z AUTO 31004KT 260V340 CAVOK 10/09 Q1014 NOSIG
08:50
V
9 °C 10 km+ - 300° 300° 3 kt METAR EDDG 250650Z AUTO 30003KT 270V330 CAVOK 09/08 Q1014 NOSIG
08:20
I
8 °C 2,6 km - Var Var 2 kt METAR EDDG 250620Z AUTO VRB02KT 9999 2600 BR NCD 08/08 Q1014 NOSIG
07:50
L
7 °C 450 m - 290° 290° 2 kt METAR EDDG 250550Z AUTO 29002KT 0500 0450 R25/0750U FG NCD 07/07 Q1014 BECMG 9999
07:20
L
7 °C 450 m - Var Var 2 kt METAR EDDG 250520Z AUTO VRB02KT 0550 0450 R25/0550D FG NCD 07/07 Q1014 BECMG 9999
06:50
L
7 °C 900 m - 270° 270° 2 kt METAR EDDG 250450Z AUTO 27002KT 1000 0900 R25/1000U BCFG NCD 07/07 Q1014 BECMG 9999
06:20
V
8 °C 8 km - 270° 270° 2 kt METAR EDDG 250420Z AUTO 27002KT 8000 NCD 08/08 Q1014 NOSIG
05:50
V
9 °C 10 km+ - 300° 300° 3 kt METAR EDDG 250350Z AUTO 30003KT CAVOK 09/08 Q1014 NOSIG
05:20
V
10 °C 10 km+ - 320° 320° 4 kt METAR EDDG 250320Z AUTO 32004KT CAVOK 10/09 Q1014 NOSIG
04:50
V
10 °C 10 km+ - 320° 320° 5 kt METAR EDDG 250250Z AUTO 32005KT CAVOK 10/09 Q1014 NOSIG
04:20
V
11 °C 10 km+ - 300° 300° 3 kt METAR EDDG 250220Z AUTO 30003KT CAVOK 11/10 Q1014 NOSIG
03:50
V
11 °C 10 km+ - 310° 310° 3 kt METAR EDDG 250150Z AUTO 31003KT CAVOK 11/10 Q1014 NOSIG
03:20
V
11 °C 10 km+ - 270° 270° 3 kt METAR EDDG 250120Z AUTO 27003KT CAVOK 11/11 Q1014 NOSIG
02:50
V
12 °C 10 km+ - 290° 290° 3 kt METAR EDDG 250050Z AUTO 29003KT 9999 FEW022 12/11 Q1014 NOSIG
02:20
V
12 °C 10 km+ - 290° 290° 4 kt METAR EDDG 250020Z AUTO 29004KT 9999 FEW010 12/11 Q1014 TEMPO BKN012
01:50
M
12 °C 10 km+ 1.300 ft 270° 270° 5 kt METAR EDDG 242350Z AUTO 27005KT 9999 BKN013 12/11 Q1014 TEMPO SCT020
01:20
M
12 °C 10 km+ 1.400 ft 260° 260° 4 kt METAR EDDG 242320Z AUTO 26004KT 9999 BKN014 OVC023 12/12 Q1014 TEMPO SCT020
00:50
V
12 °C 10 km+ - 330° 330° 3 kt METAR EDDG 242250Z AUTO 33003KT 9999 SCT016 12/11 Q1014 TEMPO BKN012
00:20
V
12 °C 10 km+ - 320° 320° 4 kt METAR EDDG 242220Z AUTO 32004KT 9999 FEW021 12/11 Q1014 NOSIG

24 września 2022

Czas Kod Pogoda Temp. Widoczność Sufit Wiatr METAR/SPECI
23:50
V
12 °C 10 km+ - 340° 340° 3 kt METAR EDDG 242150Z AUTO 34003KT 9999 FEW025 12/11 Q1014 NOSIG
23:20
V
13 °C 10 km+ - 340° 340° 6 kt METAR EDDG 242120Z AUTO 34006KT 9999 SCT018 13/11 Q1014 TEMPO BKN014
22:50
M
13 °C 5 km 4.600 ft 310° 310° 3 kt METAR EDDG 242050Z AUTO 31003KT 270V360 5000 BR FEW014 BKN046 13/12 Q1014 REDZ BECMG BKN010
22:20
I
13 °C 4,2 km 4.200 ft 340° 340° 3 kt METAR EDDG 242020Z AUTO 34003KT 4200 -RADZ BR SCT011 OVC042 13/12 Q1014 REDZ BECMG 9999 BKN010 NSW
21:50
M
13 °C 5 km 3.600 ft 340° 340° 3 kt METAR EDDG 241950Z AUTO 34003KT 5000 -RA BR SCT019 OVC036 13/12 Q1014 TEMPO BKN012
21:20
I
13 °C 10 km+ 600 ft Var Var 2 kt METAR EDDG 241920Z AUTO VRB02KT 9999 -SHRA BKN006 OVC026 FEW///TCU 13/12 Q1014 BECMG SCT015
20:50
I
13 °C 10 km+ 700 ft Var Var 2 kt METAR EDDG 241850Z AUTO VRB02KT 9999 BKN007 13/12 Q1014 BECMG SCT015
20:20
V
13 °C 10 km+ - 260° 260° 3 kt METAR EDDG 241820Z AUTO 26003KT 9999 SCT009 13/12 Q1013 TEMPO BKN009
19:50
V
13 °C 10 km+ - 260° 260° 3 kt METAR EDDG 241750Z AUTO 26003KT 240V300 9999 SCT021 13/12 Q1013 TEMPO BKN014
19:20
V
13 °C 10 km+ - 290° 290° 3 kt METAR EDDG 241720Z AUTO 29003KT 240V330 9999 FEW033 13/12 Q1013 TEMPO BKN012
18:50
V
13 °C 10 km+ 4.900 ft 280° 280° 4 kt METAR EDDG 241650Z AUTO 28004KT 9999 -DZ FEW012 BKN049 13/12 Q1013 TEMPO BKN013
18:20
V
14 °C 10 km+ - 290° 290° 5 kt METAR EDDG 241620Z AUTO 29005KT 270V330 9999 -RA FEW014 14/12 Q1013 BECMG BKN014
17:50
V
15 °C 10 km+ - 270° 270° 5 kt METAR EDDG 241550Z AUTO 27005KT 9999 SCT017 15/11 Q1013 BECMG BKN014
17:20
V
15 °C 10 km+ - 260° 260° 8 kt METAR EDDG 241520Z AUTO 26008KT CAVOK 15/11 Q1013 NOSIG
16:50
V
15 °C 10 km+ - 260° 260° 8 kt METAR EDDG 241450Z AUTO 26008KT CAVOK 15/11 Q1013 TEMPO BKN014
16:20
V
15 °C 10 km+ - 260° 260° 8 kt METAR EDDG 241420Z AUTO 26008KT CAVOK 15/11 Q1013 NOSIG
15:50
V
15 °C 10 km+ - 280° 280° 7 kt METAR EDDG 241350Z AUTO 28007KT 9999 FEW019 15/11 Q1012 NOSIG
15:20
V
16 °C 10 km+ - 260° 260° 9 kt METAR EDDG 241320Z AUTO 26009KT 9999 FEW025 16/11 Q1012 NOSIG
14:50
V
16 °C 10 km+ 3.300 ft 250° 250° 9 kt METAR EDDG 241250Z AUTO 25009KT 9999 FEW021 BKN033 16/11 Q1013 NOSIG
14:20
M
16 °C 10 km+ 2.700 ft 250° 250° 9 kt METAR EDDG 241220Z AUTO 25009KT 220V280 9999 SCT021 BKN027 16/11 Q1013 NOSIG
13:50
V
16 °C 10 km+ 3.000 ft 240° 240° 9 kt METAR EDDG 241150Z AUTO 24009KT 9999 SCT022 BKN030 16/11 Q1013 NOSIG
13:20
M
16 °C 10 km+ 2.600 ft 220° 220° 9 kt METAR EDDG 241120Z AUTO 22009KT 200V270 9999 SCT019 BKN026 16/11 Q1013 NOSIG
12:50
V
15 °C 10 km+ - 220° 220° 6 kt METAR EDDG 241050Z AUTO 22006KT 190V270 9999 FEW017 15/12 Q1013 NOSIG
12:20
M
15 °C 10 km+ 2.800 ft 230° 230° 7 kt METAR EDDG 241020Z AUTO 23007KT 9999 -SHRA FEW019 BKN028 FEW///TCU 15/12 Q1013 NOSIG
11:50
V
15 °C 10 km+ - 220° 220° 6 kt METAR EDDG 240950Z AUTO 22006KT 9999 -SHRA FEW019 FEW///CB 15/12 Q1013 NOSIG
11:20
M
14 °C 7 km - 190° 190° 4 kt METAR EDDG 240920Z AUTO 19004KT 150V220 7000 -RA FEW023 14/13 Q1013 NOSIG
10:50
M
14 °C 7 km - 170° 170° 4 kt METAR EDDG 240850Z AUTO 17004KT 150V210 7000 -RADZ SCT021 14/13 Q1013 NOSIG
10:20
V
13 °C 8 km - 160° 160° 3 kt METAR EDDG 240820Z AUTO 16003KT 130V190 8000 FEW021 13/12 Q1012 NOSIG
09:50
V
13 °C 8 km - 170° 170° 3 kt METAR EDDG 240750Z AUTO 17003KT 130V220 8000 FEW004 13/12 Q1012 TEMPO BKN004
09:20
M
13 °C 6 km - 160° 160° 4 kt METAR EDDG 240720Z AUTO 16004KT 6000 -RA FEW003 13/12 Q1012 TEMPO 4000 BKN003
08:50
I
12 °C 4,7 km - 160° 160° 5 kt METAR EDDG 240650Z AUTO 16005KT 4700 -RA BR SCT002 12/12 Q1012 TEMPO BKN002
08:20
I
12 °C 4,8 km 4.100 ft 150° 150° 4 kt METAR EDDG 240620Z AUTO 15004KT 110V170 4800 -RA BR FEW017 BKN041 12/12 Q1012 BECMG 6000
07:50
I
12 °C 4,3 km 1.900 ft 140° 140° 3 kt METAR EDDG 240550Z AUTO 14003KT 4300 BR BKN019 BKN043 12/11 Q1012 BECMG 6000
07:20
M
12 °C 5 km - Var Var 2 kt METAR EDDG 240520Z AUTO VRB02KT 5000 -RA BR SCT048 12/11 Q1012 TEMPO 4000
06:50
M
12 °C 5 km - 140° 140° 3 kt METAR EDDG 240450Z AUTO 14003KT 5000 -RA BR FEW026 12/11 Q1012 TEMPO 4000
06:20
M
12 °C 5 km 4.500 ft 140° 140° 3 kt METAR EDDG 240420Z AUTO 14003KT 5000 -RA BR SCT024 BKN045 12/11 Q1012 TEMPO 4000
05:50
M
12 °C 5 km 2.100 ft 140° 140° 2 kt METAR EDDG 240350Z AUTO 14002KT 5000 -RA BR BKN021 12/11 Q1012 TEMPO 4000
05:20
M
12 °C 7 km 2.700 ft Var Var 2 kt METAR EDDG 240320Z AUTO VRB02KT 7000 -RA BKN027 BKN035 12/11 Q1012 TEMPO 4000
04:50
V
12 °C 10 km+ - Var Var 1 kt METAR EDDG 240250Z AUTO VRB01KT 9999 -RA FEW027 SCT040 12/11 Q1012 TEMPO 4000
04:20
V
12 °C 9 km - 140° 140° 3 kt METAR EDDG 240220Z AUTO 14003KT 9000 -RA SCT028 12/11 Q1012 TEMPO 4000 RADZ
03:50
V
12 °C 10 km+ - 250° 250° 3 kt METAR EDDG 240150Z AUTO 25003KT 210V290 9999 -DZ FEW029 12/10 Q1013 TEMPO 4000 RADZ
03:20
M
12 °C 10 km+ 2.400 ft 180° 180° 3 kt METAR EDDG 240120Z AUTO 18003KT 140V220 9999 -DZ FEW018 BKN024 12/11 Q1013 TEMPO 4000 RA
02:50
V
11 °C 10 km+ - Var Var 1 kt METAR EDDG 240050Z AUTO VRB01KT 9999 -DZ FEW045 11/11 Q1013 TEMPO 4000 RA
02:20
V
12 °C 10 km+ - Var 000° 0 kt METAR EDDG 240020Z AUTO 00000KT 9999 -RA NSC 12/11 Q1013 TEMPO 4000 RA
01:50
V
12 °C 10 km+ - 090° 090° 1 kt METAR EDDG 232350Z AUTO 09001KT CAVOK 12/11 Q1013 NOSIG
01:20
V
12 °C 10 km+ - 140° 140° 1 kt METAR EDDG 232320Z AUTO 14001KT 9999 -RA NSC 12/11 Q1013 NOSIG
00:50
V
12 °C 10 km+ - Var Var 1 kt METAR EDDG 232250Z AUTO VRB01KT 9999 -RA NSC 12/11 Q1013 NOSIG
00:20
V
12 °C 10 km+ - Var Var 1 kt METAR EDDG 232220Z AUTO VRB01KT 9999 FEW048 12/11 Q1013 NOSIG

23 września 2022

Czas Kod Pogoda Temp. Widoczność Sufit Wiatr METAR/SPECI
23:50
V
12 °C 10 km+ - 090° 090° 1 kt METAR EDDG 232150Z AUTO 09001KT CAVOK 12/10 Q1013 NOSIG
23:20
V
12 °C 10 km+ - Var Var 1 kt METAR EDDG 232120Z AUTO VRB01KT CAVOK 12/11 Q1014 NOSIG
22:50
V
13 °C 10 km+ - Var Var 1 kt METAR EDDG 232050Z AUTO VRB01KT 9999 -RA NSC 13/10 Q1014 NOSIG
22:20
V
13 °C 10 km+ - 160° 160° 3 kt METAR EDDG 232020Z AUTO 16003KT CAVOK 13/10 Q1014 NOSIG
21:50
V
13 °C 10 km+ - Var Var 1 kt METAR EDDG 231950Z AUTO VRB01KT CAVOK 13/10 Q1014 NOSIG
21:20
V
13 °C 10 km+ - Var Var 1 kt METAR EDDG 231920Z AUTO VRB01KT CAVOK 13/11 Q1014 NOSIG
20:50
V
13 °C 10 km+ - Var Var 2 kt METAR EDDG 231850Z AUTO VRB02KT CAVOK 13/10 Q1014 NOSIG
20:20
V
14 °C 10 km+ - 150° 150° 3 kt METAR EDDG 231820Z AUTO 15003KT CAVOK 14/10 Q1014 NOSIG
19:50
V
15 °C 10 km+ - 190° 190° 3 kt METAR EDDG 231750Z AUTO 19003KT CAVOK 15/09 Q1014 NOSIG
19:20
V
16 °C 10 km+ - 190° 190° 3 kt METAR EDDG 231720Z AUTO 19003KT 160V220 CAVOK 16/08 Q1014 NOSIG
18:50
V
17 °C 10 km+ - 200° 200° 4 kt METAR EDDG 231650Z AUTO 20004KT 160V240 CAVOK 17/07 Q1014 NOSIG
18:20
V
17 °C 10 km+ - 220° 220° 4 kt METAR EDDG 231620Z AUTO 22004KT 170V270 CAVOK 17/07 Q1014 NOSIG
17:50
V
17 °C 10 km+ - 220° 220° 5 kt METAR EDDG 231550Z AUTO 22005KT 200V270 CAVOK 17/07 Q1014 NOSIG
17:20
V
18 °C 10 km+ - Var Var 4 kt METAR EDDG 231520Z AUTO VRB04KT CAVOK 18/08 Q1014 NOSIG
16:50
V
18 °C 10 km+ - 210° 210° 5 kt METAR EDDG 231450Z AUTO 21005KT 170V250 CAVOK 18/08 Q1014 NOSIG
16:20
V
18 °C 10 km+ - 220° 220° 4 kt METAR EDDG 231420Z AUTO 22004KT 160V270 CAVOK 18/08 Q1015 NOSIG
15:50
V
17 °C 10 km+ - 210° 210° 4 kt METAR EDDG 231350Z AUTO 21004KT 140V250 CAVOK 17/08 Q1015 NOSIG
15:20
V
17 °C 10 km+ - 200° 200° 5 kt METAR EDDG 231320Z AUTO 20005KT 170V240 CAVOK 17/08 Q1015 NOSIG
14:50
V
17 °C 10 km+ - 170° 170° 3 kt METAR EDDG 231250Z AUTO 17003KT 130V220 CAVOK 17/08 Q1015 NOSIG
14:20
V
17 °C 10 km+ - 160° 160° 4 kt METAR EDDG 231220Z AUTO 16004KT 120V270 CAVOK 17/09 Q1016 NOSIG
13:50
V
16 °C 10 km+ - 190° 190° 6 kt METAR EDDG 231150Z AUTO 19006KT 150V230 CAVOK 16/07 Q1016 NOSIG
13:20
V
16 °C 10 km+ - 180° 180° 4 kt METAR EDDG 231120Z AUTO 18004KT 140V210 CAVOK 16/08 Q1016 NOSIG
12:50
V
16 °C 10 km+ - 160° 160° 4 kt METAR EDDG 231050Z AUTO 16004KT 070V230 CAVOK 16/08 Q1016 NOSIG
Starsze dane

My i osoby trzecie śledzimy twoje zachowanie w internecie na naszej stronie za pomocą plików cookie. Jeśli kontynuujesz, zakładamy, że zgadzasz się z naszą polityką plików cookie. Dowiedz się więcej